createdAt,value
2023-05-05T00:01:03.158Z,14.02
2023-05-05T00:03:31.104Z,14.00
2023-05-05T00:05:58.986Z,13.97
2023-05-05T00:08:27.796Z,13.93
2023-05-05T00:10:56.535Z,13.94
2023-05-05T00:13:24.799Z,13.94
2023-05-05T00:15:54.107Z,13.95
2023-05-05T00:18:22.265Z,13.94
2023-05-05T00:20:50.224Z,13.92
2023-05-05T00:23:20.358Z,13.92
2023-05-05T00:25:48.221Z,13.91
2023-05-05T00:28:16.044Z,13.89
2023-05-05T00:30:43.922Z,13.89
2023-05-05T00:33:12.253Z,13.85
2023-05-05T00:35:40.416Z,13.80
2023-05-05T00:38:08.592Z,13.76
2023-05-05T00:40:38.028Z,13.70
2023-05-05T00:43:07.722Z,13.65
2023-05-05T00:45:37.434Z,13.60
2023-05-05T00:48:06.943Z,13.55
2023-05-05T00:50:35.187Z,13.54
2023-05-05T00:53:06.636Z,13.55
2023-05-05T00:55:35.303Z,13.53
2023-05-05T00:58:04.467Z,13.59
2023-05-05T01:00:33.053Z,13.63
2023-05-05T01:03:01.422Z,13.66
2023-05-05T01:06:02.754Z,13.70
2023-05-05T01:09:28.236Z,13.72
2023-05-05T01:12:15.790Z,13.68
2023-05-05T01:15:01.408Z,13.66
2023-05-05T01:17:47.543Z,13.62
2023-05-05T01:20:42.226Z,13.60
2023-05-05T01:23:24.103Z,13.59
2023-05-05T01:26:24.405Z,13.57
2023-05-05T01:29:09.625Z,13.57
2023-05-05T01:32:04.242Z,13.57
2023-05-05T01:34:42.826Z,13.60
2023-05-05T01:37:18.997Z,13.63
2023-05-05T01:39:52.689Z,13.68
2023-05-05T01:42:22.840Z,13.73
2023-05-05T01:44:54.176Z,13.72
2023-05-05T01:47:23.803Z,13.76
2023-05-05T01:49:53.775Z,13.75
2023-05-05T01:52:23.408Z,13.70
2023-05-05T01:54:53.253Z,13.69
2023-05-05T01:57:26.524Z,13.68
2023-05-05T01:59:56.194Z,13.65
2023-05-05T02:02:28.946Z,13.65
2023-05-05T02:04:59.077Z,13.67
2023-05-05T02:07:28.249Z,13.69
2023-05-05T02:09:56.988Z,13.65
2023-05-05T02:12:26.614Z,13.64
2023-05-05T02:14:59.854Z,13.65
2023-05-05T02:17:29.506Z,13.66
2023-05-05T02:20:01.112Z,13.68
2023-05-05T02:22:29.044Z,13.66
2023-05-05T02:24:57.101Z,13.68
2023-05-05T02:27:27.250Z,13.70
2023-05-05T02:30:07.346Z,13.65
2023-05-05T02:32:46.840Z,13.56
2023-05-05T02:35:22.347Z,13.55
2023-05-05T02:38:05.508Z,13.53
2023-05-05T02:40:42.047Z,13.55
2023-05-05T02:43:16.811Z,13.56
2023-05-05T02:45:45.755Z,13.58
2023-05-05T02:48:14.288Z,13.59
2023-05-05T02:50:42.160Z,13.57
2023-05-05T02:53:15.277Z,13.57
2023-05-05T02:55:57.304Z,13.57
2023-05-05T02:58:34.605Z,13.54
2023-05-05T03:01:25.052Z,13.48
2023-05-05T03:04:12.061Z,13.39
2023-05-05T03:06:51.151Z,13.32
2023-05-05T03:09:30.859Z,13.27
2023-05-05T03:12:06.745Z,13.26
2023-05-05T03:14:45.552Z,13.30
2023-05-05T03:17:18.353Z,13.34
2023-05-05T03:19:49.368Z,13.38
2023-05-05T03:22:17.657Z,13.41
2023-05-05T03:24:51.567Z,13.38
2023-05-05T03:27:22.730Z,13.37
2023-05-05T03:29:50.533Z,13.43
2023-05-05T03:32:18.562Z,13.51
2023-05-05T03:34:46.797Z,13.51
2023-05-05T03:37:14.902Z,13.53
2023-05-05T03:39:42.851Z,13.58
2023-05-05T03:42:10.806Z,13.66
2023-05-05T03:44:38.662Z,13.65
2023-05-05T03:47:06.614Z,13.51
2023-05-05T03:49:35.292Z,13.49
2023-05-05T03:52:03.888Z,13.51
2023-05-05T03:54:31.863Z,13.51
2023-05-05T03:56:59.954Z,13.47
2023-05-05T03:59:27.933Z,13.42
2023-05-05T04:01:55.724Z,13.36
2023-05-05T04:04:23.736Z,13.32
2023-05-05T04:06:52.496Z,13.33
2023-05-05T04:09:20.505Z,13.31
2023-05-05T04:11:48.481Z,13.28
2023-05-05T04:14:16.393Z,13.26
2023-05-05T04:16:44.356Z,13.29
2023-05-05T04:19:13.215Z,13.27
2023-05-05T04:21:41.358Z,13.30
2023-05-05T04:24:10.420Z,13.30
2023-05-05T04:26:38.314Z,13.29
2023-05-05T04:29:06.099Z,13.34
2023-05-05T04:31:34.800Z,13.38
2023-05-05T04:34:02.774Z,13.38
2023-05-05T04:36:30.793Z,13.36
2023-05-05T04:38:58.959Z,13.35
2023-05-05T04:41:28.940Z,13.38
2023-05-05T04:43:58.050Z,13.38
2023-05-05T04:46:26.374Z,13.41
2023-05-05T04:48:54.365Z,13.39
2023-05-05T04:51:22.299Z,13.41
2023-05-05T04:53:50.043Z,13.38
2023-05-05T04:56:18.738Z,13.36
2023-05-05T04:58:46.576Z,13.34
2023-05-05T05:01:14.391Z,13.36
2023-05-05T05:03:42.497Z,13.40
2023-05-05T05:06:10.511Z,13.43
2023-05-05T05:08:38.314Z,13.45
2023-05-05T05:11:06.481Z,13.48
2023-05-05T05:13:34.663Z,13.52
2023-05-05T05:16:02.725Z,13.55
2023-05-05T05:18:30.585Z,13.57
2023-05-05T05:20:58.531Z,13.61
2023-05-05T05:23:26.367Z,13.59
2023-05-05T05:25:54.549Z,13.62
2023-05-05T05:28:23.541Z,13.66
2023-05-05T05:30:54.193Z,13.66
2023-05-05T05:33:22.385Z,13.64
2023-05-05T05:35:50.644Z,13.67
2023-05-05T05:38:19.605Z,13.69
2023-05-05T05:40:48.225Z,13.74
2023-05-05T05:43:16.186Z,13.81
2023-05-05T05:45:44.042Z,13.84
2023-05-05T05:48:12.223Z,13.97
2023-05-05T05:50:39.974Z,14.04
2023-05-05T05:53:08.081Z,14.10
2023-05-05T05:55:36.159Z,14.27
2023-05-05T05:58:04.485Z,14.42
2023-05-05T06:00:32.510Z,14.57
2023-05-05T06:03:03.518Z,14.60
2023-05-05T06:05:33.500Z,14.65
2023-05-05T06:08:01.421Z,14.73
2023-05-05T06:10:30.134Z,14.79
2023-05-05T06:13:02.270Z,14.76
2023-05-05T06:15:30.629Z,14.70
2023-05-05T06:17:58.904Z,14.60
2023-05-05T06:20:27.590Z,14.61
2023-05-05T06:22:55.992Z,14.59
2023-05-05T06:25:23.961Z,14.59
2023-05-05T06:27:52.206Z,14.58
2023-05-05T06:30:20.067Z,14.61
2023-05-05T06:32:47.799Z,14.61
2023-05-05T06:35:15.879Z,14.67
2023-05-05T06:37:44.351Z,14.80
2023-05-05T06:40:13.047Z,14.87
2023-05-05T06:42:41.456Z,14.94
2023-05-05T06:45:11.575Z,15.16
2023-05-05T06:47:39.529Z,15.40
2023-05-05T06:50:09.289Z,15.48
2023-05-05T06:52:37.433Z,15.50
2023-05-05T06:55:06.405Z,15.47
2023-05-05T06:57:34.180Z,15.46
2023-05-05T07:00:05.959Z,15.46
2023-05-05T07:02:33.992Z,15.44
2023-05-05T07:05:02.037Z,15.48
2023-05-05T07:07:31.702Z,15.45
2023-05-05T07:09:59.553Z,15.34
2023-05-05T07:12:31.146Z,15.24
2023-05-05T07:14:59.024Z,15.20
2023-05-05T07:17:26.877Z,15.14
2023-05-05T07:19:55.105Z,15.14
2023-05-05T07:22:22.863Z,15.08
2023-05-05T07:24:53.392Z,15.04
2023-05-05T07:27:22.628Z,14.94
2023-05-05T07:29:50.473Z,14.81
2023-05-05T07:32:18.606Z,14.69
2023-05-05T07:34:46.541Z,14.55
2023-05-05T07:37:14.484Z,14.40
2023-05-05T07:39:42.324Z,14.28
2023-05-05T07:42:10.898Z,14.17
2023-05-05T07:44:39.245Z,14.07
2023-05-05T07:47:07.072Z,13.98
2023-05-05T07:49:34.914Z,13.89
2023-05-05T07:52:03.003Z,13.82
2023-05-05T07:54:31.348Z,13.73
2023-05-05T07:56:59.455Z,13.67
2023-05-05T07:59:27.619Z,13.60
2023-05-05T08:01:55.547Z,13.60
2023-05-05T08:04:23.374Z,13.63
2023-05-05T08:06:51.226Z,13.74
2023-05-05T08:09:18.977Z,13.92
2023-05-05T08:11:46.757Z,14.11
2023-05-05T08:14:15.220Z,14.28
2023-05-05T08:16:43.036Z,14.55
2023-05-05T08:19:17.855Z,14.88
2023-05-05T08:21:56.181Z,15.25
2023-05-05T08:24:24.031Z,15.52
2023-05-05T08:26:51.914Z,15.60
2023-05-05T08:29:20.101Z,15.62
2023-05-05T08:31:48.095Z,15.66
2023-05-05T08:34:15.975Z,15.74
2023-05-05T08:36:43.885Z,15.74
2023-05-05T08:39:11.692Z,15.77
2023-05-05T08:41:39.588Z,15.87
2023-05-05T08:44:08.964Z,15.86
2023-05-05T08:46:37.988Z,15.78
2023-05-05T08:49:11.204Z,15.74
2023-05-05T08:51:44.298Z,15.75
2023-05-05T08:54:20.176Z,15.77
2023-05-05T08:56:51.532Z,15.75
2023-05-05T08:59:25.123Z,15.61
2023-05-05T09:01:53.971Z,15.52
2023-05-05T09:04:21.934Z,15.52
2023-05-05T09:06:50.027Z,15.46
2023-05-05T09:09:19.022Z,15.43
2023-05-05T09:11:47.395Z,15.43
2023-05-05T09:14:15.182Z,15.40
2023-05-05T09:16:44.222Z,15.34
2023-05-05T09:19:12.054Z,15.24
2023-05-05T09:21:49.033Z,15.19
2023-05-05T09:24:16.852Z,15.14
2023-05-05T09:26:47.315Z,15.08
2023-05-05T09:29:22.730Z,15.07
2023-05-05T09:32:11.217Z,15.06
2023-05-05T09:34:39.179Z,15.07
2023-05-05T09:37:07.020Z,15.14
2023-05-05T09:39:35.035Z,15.24
2023-05-05T09:42:03.300Z,15.41
2023-05-05T09:44:38.105Z,15.55
2023-05-05T09:47:14.791Z,15.60
2023-05-05T09:49:59.470Z,15.64
2023-05-05T09:52:27.994Z,15.73
2023-05-05T09:54:57.445Z,15.95
2023-05-05T09:57:28.183Z,16.27
2023-05-05T10:00:01.795Z,16.59
2023-05-05T10:02:39.041Z,16.82
2023-05-05T10:05:12.864Z,16.92
2023-05-05T10:07:43.520Z,16.89
2023-05-05T10:10:15.526Z,16.87
2023-05-05T10:12:46.457Z,16.90
2023-05-05T10:15:16.286Z,16.89
2023-05-05T10:20:22.706Z,17.09
2023-05-05T10:22:53.417Z,17.25
2023-05-05T10:25:38.434Z,17.43
2023-05-05T10:28:11.801Z,17.74
2023-05-05T10:30:46.337Z,17.93
2023-05-05T10:33:31.604Z,17.92
2023-05-05T10:36:06.642Z,17.79
2023-05-05T10:38:36.094Z,17.80
2023-05-05T10:41:04.409Z,17.82
2023-05-05T10:43:32.770Z,17.80
2023-05-05T10:46:01.505Z,17.61
2023-05-05T10:48:45.045Z,17.39
2023-05-05T10:51:39.370Z,17.19
2023-05-05T10:54:24.564Z,17.20
2023-05-05T10:56:53.221Z,17.30
2023-05-05T10:59:39.128Z,17.36
2023-05-05T11:02:27.313Z,17.45
2023-05-05T11:05:18.354Z,17.58
2023-05-05T11:07:49.937Z,17.80
2023-05-05T11:10:21.012Z,18.04
2023-05-05T11:12:52.102Z,18.18
2023-05-05T11:15:33.571Z,18.40
2023-05-05T11:18:07.323Z,18.67
2023-05-05T11:20:37.103Z,18.67
2023-05-05T11:23:05.377Z,18.84
2023-05-05T11:25:37.063Z,18.87
2023-05-05T11:28:13.683Z,18.65
2023-05-05T11:30:57.902Z,18.45
2023-05-05T11:33:30.718Z,18.37
2023-05-05T11:36:08.834Z,18.24
2023-05-05T11:38:36.553Z,18.13
2023-05-05T11:41:17.799Z,18.20
2023-05-05T11:43:45.889Z,18.53
2023-05-05T11:46:17.323Z,18.77
2023-05-05T11:48:52.023Z,18.77
2023-05-05T11:51:20.301Z,18.56
2023-05-05T11:53:49.637Z,18.49
2023-05-05T11:56:19.678Z,18.61
2023-05-05T11:59:10.819Z,18.67
2023-05-05T12:01:42.613Z,18.46
2023-05-05T12:04:16.145Z,18.17
2023-05-05T12:06:46.184Z,17.94
2023-05-05T12:09:16.899Z,17.91
2023-05-05T12:11:49.687Z,18.15
2023-05-05T12:14:17.485Z,18.46
2023-05-05T12:17:07.086Z,18.73
2023-05-05T12:19:36.299Z,19.01
2023-05-05T12:22:05.236Z,19.38
2023-05-05T12:24:33.191Z,19.44
2023-05-05T12:27:12.112Z,19.38
2023-05-05T12:29:39.929Z,19.46
2023-05-05T12:32:19.747Z,19.76
2023-05-05T12:34:49.222Z,19.71
2023-05-05T12:37:19.691Z,19.66
2023-05-05T12:39:48.314Z,19.86
2023-05-05T12:42:17.118Z,20.18
2023-05-05T12:44:45.035Z,20.47
2023-05-05T12:47:14.172Z,20.77
2023-05-05T12:49:50.829Z,20.51
2023-05-05T12:52:19.035Z,20.22
2023-05-05T12:54:54.996Z,20.05
2023-05-05T12:57:23.655Z,19.82
2023-05-05T12:59:52.863Z,19.64
2023-05-05T13:02:21.186Z,19.51
2023-05-05T13:04:54.509Z,19.54
2023-05-05T13:07:22.492Z,19.77
2023-05-05T13:09:51.331Z,19.93
2023-05-05T13:12:19.319Z,20.11
2023-05-05T13:14:47.304Z,20.32
2023-05-05T13:17:15.298Z,20.39
2023-05-05T13:19:46.270Z,20.45
2023-05-05T13:22:14.552Z,20.49
2023-05-05T13:24:51.913Z,20.66
2023-05-05T13:27:20.729Z,20.82
2023-05-05T13:29:48.672Z,20.76
2023-05-05T13:32:16.655Z,20.75
2023-05-05T13:34:44.464Z,20.85
2023-05-05T13:37:12.581Z,21.06
2023-05-05T13:39:40.405Z,20.98
2023-05-05T13:42:08.333Z,20.78
2023-05-05T13:44:36.261Z,20.59
2023-05-05T13:47:04.215Z,20.46
2023-05-05T13:49:32.058Z,20.47
2023-05-05T13:52:00.179Z,20.65
2023-05-05T13:54:28.130Z,20.75
2023-05-05T13:56:55.897Z,20.68
2023-05-05T13:59:25.815Z,20.68
2023-05-05T14:01:54.028Z,20.76
2023-05-05T14:04:21.959Z,20.72
2023-05-05T14:06:49.845Z,20.62
2023-05-05T14:09:17.780Z,20.73
2023-05-05T14:11:45.517Z,20.88
2023-05-05T14:14:13.232Z,20.88
2023-05-05T14:16:41.203Z,20.72
2023-05-05T14:19:09.091Z,20.43
2023-05-05T14:21:36.913Z,20.11
2023-05-05T14:24:05.295Z,19.78
2023-05-05T14:26:33.105Z,19.57
2023-05-05T14:29:00.924Z,19.45
2023-05-05T14:31:29.734Z,19.37
2023-05-05T14:33:57.537Z,19.48
2023-05-05T14:36:25.415Z,19.67
2023-05-05T14:38:53.215Z,19.78
2023-05-05T14:41:21.386Z,19.79
2023-05-05T14:43:49.185Z,19.83
2023-05-05T14:46:17.122Z,19.78
2023-05-05T14:48:46.479Z,19.78
2023-05-05T14:51:15.970Z,19.64
2023-05-05T14:53:43.831Z,19.37
2023-05-05T14:56:11.601Z,19.22
2023-05-05T14:58:39.687Z,19.29
2023-05-05T15:01:07.826Z,19.52
2023-05-05T15:03:35.882Z,19.82
2023-05-05T15:06:04.839Z,20.13
2023-05-05T15:08:32.708Z,20.39
2023-05-05T15:11:01.014Z,20.52
2023-05-05T15:13:29.731Z,20.62
2023-05-05T15:15:57.727Z,20.69
2023-05-05T15:18:25.635Z,20.67
2023-05-05T15:20:53.459Z,20.71
2023-05-05T15:23:21.504Z,20.79
2023-05-05T15:25:49.390Z,20.86
2023-05-05T15:28:18.720Z,20.95
2023-05-05T15:30:46.508Z,21.03
2023-05-05T15:33:14.360Z,21.24
2023-05-05T15:35:42.702Z,21.32
2023-05-05T15:38:10.631Z,21.46
2023-05-05T15:40:38.420Z,21.46
2023-05-05T15:43:06.868Z,21.32
2023-05-05T15:45:35.175Z,21.18
2023-05-05T15:48:03.143Z,20.99
2023-05-05T15:50:30.995Z,20.90
2023-05-05T15:52:59.066Z,20.80
2023-05-05T15:55:27.787Z,20.70
2023-05-05T15:57:55.585Z,20.64
2023-05-05T16:00:23.505Z,20.50
2023-05-05T16:02:51.438Z,20.17
2023-05-05T16:05:22.117Z,19.94
2023-05-05T16:07:51.798Z,19.66
2023-05-05T16:10:20.539Z,19.52
2023-05-05T16:12:48.891Z,19.62
2023-05-05T16:15:16.819Z,19.66
2023-05-05T16:17:44.638Z,19.72
2023-05-05T16:20:12.818Z,19.99
2023-05-05T16:22:41.112Z,20.32
2023-05-05T16:25:09.699Z,20.54
2023-05-05T16:27:37.727Z,20.72
2023-05-05T16:30:07.203Z,20.97
2023-05-05T16:32:35.040Z,21.16
2023-05-05T16:35:02.982Z,21.14
2023-05-05T16:37:30.950Z,21.09
2023-05-05T16:40:00.727Z,21.06
2023-05-05T16:42:28.657Z,20.98
2023-05-05T16:44:56.425Z,20.89
2023-05-05T16:47:24.286Z,20.90
2023-05-05T16:49:52.576Z,20.99
2023-05-05T16:52:20.386Z,20.94
2023-05-05T16:54:55.217Z,20.70
2023-05-05T16:57:23.969Z,20.51
2023-05-05T16:59:57.294Z,20.50
2023-05-05T17:02:25.185Z,20.33
2023-05-05T17:04:53.107Z,20.16
2023-05-05T17:07:21.398Z,20.18
2023-05-05T17:09:49.651Z,20.26
2023-05-05T17:12:17.615Z,20.30
2023-05-05T17:14:46.019Z,20.39
2023-05-05T17:17:14.296Z,20.55
2023-05-05T17:19:42.734Z,20.64
2023-05-05T17:22:10.780Z,20.71
2023-05-05T17:24:38.702Z,20.77
2023-05-05T17:27:06.522Z,20.73
2023-05-05T17:29:40.752Z,20.75
2023-05-05T17:32:09.360Z,20.68
2023-05-05T17:34:37.785Z,20.59
2023-05-05T17:37:05.724Z,20.44
2023-05-05T17:39:33.543Z,20.32
2023-05-05T17:42:01.394Z,20.17
2023-05-05T17:44:29.275Z,19.98
2023-05-05T17:46:57.281Z,19.74
2023-05-05T17:49:25.508Z,19.52
2023-05-05T17:51:53.766Z,19.41
2023-05-05T17:54:21.749Z,19.25
2023-05-05T17:56:49.550Z,19.19
2023-05-05T17:59:18.290Z,19.14
2023-05-05T18:01:46.127Z,19.09
2023-05-05T18:04:14.046Z,19.01
2023-05-05T18:06:41.915Z,18.92
2023-05-05T18:09:11.247Z,18.85
2023-05-05T18:11:39.252Z,18.77
2023-05-05T18:14:07.055Z,18.57
2023-05-05T18:16:34.914Z,18.37
2023-05-05T18:19:03.503Z,18.22
2023-05-05T18:21:32.066Z,18.11
2023-05-05T18:24:11.523Z,18.08
2023-05-05T18:26:52.134Z,18.03
2023-05-05T18:29:21.952Z,18.00
2023-05-05T18:31:56.988Z,17.98
2023-05-05T18:34:29.471Z,17.94
2023-05-05T18:36:58.956Z,17.86
2023-05-05T18:39:28.144Z,17.78
2023-05-05T18:41:55.948Z,17.74
2023-05-05T18:44:24.000Z,17.65
2023-05-05T18:46:52.021Z,17.55
2023-05-05T18:49:19.905Z,17.44
2023-05-05T18:51:47.696Z,17.33
2023-05-05T18:54:15.643Z,17.17
2023-05-05T18:56:43.791Z,17.00
2023-05-05T18:59:11.780Z,16.89
2023-05-05T19:01:39.809Z,16.79
2023-05-05T19:04:18.794Z,16.68
2023-05-05T19:06:54.834Z,16.61
2023-05-05T19:09:22.581Z,16.48
2023-05-05T19:11:51.055Z,16.36
2023-05-05T19:14:19.045Z,16.24
2023-05-05T19:16:47.145Z,16.11
2023-05-05T19:19:15.287Z,15.99
2023-05-05T19:21:43.237Z,15.92
2023-05-05T19:24:11.948Z,15.85
2023-05-05T19:26:40.031Z,15.78
2023-05-05T19:29:07.856Z,15.73
2023-05-05T19:31:36.553Z,15.65
2023-05-05T19:34:05.352Z,15.55
2023-05-05T19:36:34.717Z,15.46
2023-05-05T19:39:05.472Z,15.41
2023-05-05T19:41:35.452Z,15.32
2023-05-05T19:44:03.653Z,15.24
2023-05-05T19:46:32.412Z,15.16
2023-05-05T19:49:01.417Z,15.13
2023-05-05T19:51:29.366Z,15.09
2023-05-05T19:53:57.334Z,15.01
2023-05-05T19:56:26.032Z,14.98
2023-05-05T19:58:57.346Z,14.93
2023-05-05T20:01:25.588Z,14.86
2023-05-05T20:03:56.048Z,14.77
2023-05-05T20:06:24.822Z,14.66
2023-05-05T20:08:54.683Z,14.57
2023-05-05T20:11:23.133Z,14.47
2023-05-05T20:13:51.705Z,14.38
2023-05-05T20:16:21.530Z,14.34
2023-05-05T20:18:49.784Z,14.27
2023-05-05T20:21:18.356Z,14.23
2023-05-05T20:23:46.568Z,14.16
2023-05-05T20:26:14.607Z,14.10
2023-05-05T20:28:45.365Z,14.05
2023-05-05T20:31:14.694Z,14.04
2023-05-05T20:33:42.688Z,14.03
2023-05-05T20:36:11.447Z,14.01
2023-05-05T20:38:39.277Z,13.94
2023-05-05T20:41:07.263Z,13.93
2023-05-05T20:43:36.749Z,13.90
2023-05-05T20:46:04.570Z,13.90
2023-05-05T20:48:32.320Z,13.90
2023-05-05T20:51:04.400Z,13.89
2023-05-05T20:53:32.898Z,13.85
2023-05-05T20:56:00.931Z,13.84
2023-05-05T20:58:30.122Z,13.82
2023-05-05T21:00:58.078Z,13.84
2023-05-05T21:03:25.940Z,13.84
2023-05-05T21:05:54.293Z,13.79
2023-05-05T21:08:22.299Z,13.72
2023-05-05T21:10:50.204Z,13.65
2023-05-05T21:13:18.223Z,13.58
2023-05-05T21:15:46.320Z,13.52
2023-05-05T21:18:14.204Z,13.45
2023-05-05T21:20:42.265Z,13.39
2023-05-05T21:23:10.123Z,13.31
2023-05-05T21:25:37.991Z,13.24
2023-05-05T21:28:05.943Z,13.16
2023-05-05T21:30:33.918Z,13.11
2023-05-05T21:33:01.929Z,13.08
2023-05-05T21:35:30.039Z,13.07
2023-05-05T21:37:58.111Z,13.04
2023-05-05T21:40:26.342Z,13.01
2023-05-05T21:42:54.156Z,13.01
2023-05-05T21:45:22.135Z,13.02
2023-05-05T21:47:50.368Z,13.00
2023-05-05T21:50:18.325Z,12.97
2023-05-05T21:52:46.179Z,12.95
2023-05-05T21:55:13.971Z,12.92
2023-05-05T21:57:41.734Z,12.88
2023-05-05T22:00:16.571Z,12.82
2023-05-05T22:02:45.479Z,12.80
2023-05-05T22:05:13.485Z,12.78
2023-05-05T22:07:41.431Z,12.75
2023-05-05T22:10:09.933Z,12.73
2023-05-05T22:12:38.098Z,12.76
2023-05-05T22:15:06.850Z,12.77
2023-05-05T22:17:35.287Z,12.83
2023-05-05T22:20:05.054Z,12.89
2023-05-05T22:22:33.141Z,12.89
2023-05-05T22:25:01.087Z,12.88
2023-05-05T22:27:28.831Z,12.82
2023-05-05T22:29:57.495Z,12.80
2023-05-05T22:32:25.575Z,12.77
2023-05-05T22:34:53.380Z,12.76
2023-05-05T22:37:21.472Z,12.74
2023-05-05T22:39:49.446Z,12.73
2023-05-05T22:42:17.318Z,12.72
2023-05-05T22:44:45.148Z,12.74
2023-05-05T22:47:13.391Z,12.74
2023-05-05T22:49:41.264Z,12.76
2023-05-05T22:52:09.071Z,12.72
2023-05-05T22:54:37.009Z,12.68
2023-05-05T22:57:04.768Z,12.64
2023-05-05T22:59:32.532Z,12.62
2023-05-05T23:02:00.407Z,12.59
2023-05-05T23:04:28.289Z,12.56
2023-05-05T23:06:56.766Z,12.53
2023-05-05T23:09:24.601Z,12.47
2023-05-05T23:11:52.451Z,12.45
2023-05-05T23:14:20.397Z,12.48
2023-05-05T23:16:48.451Z,12.53
2023-05-05T23:19:16.224Z,12.54
2023-05-05T23:21:52.797Z,12.51
2023-05-05T23:24:22.276Z,12.53
2023-05-05T23:26:51.909Z,12.52
2023-05-05T23:29:20.636Z,12.41
2023-05-05T23:31:48.663Z,12.31
2023-05-05T23:34:16.650Z,12.26
2023-05-05T23:36:44.704Z,12.25
2023-05-05T23:39:12.511Z,12.18
2023-05-05T23:41:40.373Z,12.16
2023-05-05T23:44:08.309Z,12.17
2023-05-05T23:46:36.269Z,12.18
2023-05-05T23:49:04.258Z,12.21
2023-05-05T23:51:32.115Z,12.25
2023-05-05T23:53:59.900Z,12.31
2023-05-05T23:56:27.766Z,12.38
2023-05-05T23:58:56.226Z,12.41
